createdAt,value
2023-01-11T00:05:46.868Z,12.10
2023-01-11T00:13:52.244Z,12.50
2023-01-11T00:22:00.172Z,12.80
2023-01-11T00:30:05.647Z,12.80
2023-01-11T00:38:33.681Z,12.90
2023-01-11T00:46:51.404Z,12.90
2023-01-11T00:54:59.388Z,12.80
2023-01-11T01:03:04.720Z,12.70
2023-01-11T01:11:12.902Z,12.70
2023-01-11T01:19:18.292Z,12.60
2023-01-11T01:27:26.235Z,12.60
2023-01-11T01:35:31.651Z,12.70
2023-01-11T01:44:00.939Z,12.80
2023-01-11T01:52:06.576Z,12.70
2023-01-11T02:00:15.828Z,12.50
2023-01-11T02:08:26.033Z,12.60
2023-01-11T02:16:34.085Z,12.60
2023-01-11T02:24:59.290Z,12.00
2023-01-11T02:33:18.322Z,11.90
2023-01-11T02:41:49.318Z,12.10
2023-01-11T02:50:04.395Z,12.30
2023-01-11T02:58:13.265Z,12.30
2023-01-11T03:06:24.249Z,12.60
2023-01-11T03:14:37.809Z,12.60
2023-01-11T03:22:55.173Z,12.60
2023-01-11T03:31:07.093Z,12.50
2023-01-11T03:39:23.406Z,12.70
2023-01-11T03:47:33.120Z,12.40
2023-01-11T03:55:43.629Z,12.60
2023-01-11T04:03:49.007Z,12.40
2023-01-11T04:11:56.860Z,12.50
2023-01-11T04:20:02.352Z,12.40
2023-01-11T04:28:10.391Z,12.60
2023-01-11T04:36:16.642Z,12.40
2023-01-11T04:44:24.675Z,12.50
2023-01-11T04:52:30.098Z,12.60
2023-01-11T05:00:38.167Z,12.50
2023-01-11T05:08:43.524Z,12.60
2023-01-11T05:16:51.876Z,12.60
2023-01-11T05:24:57.259Z,12.60
2023-01-11T05:33:05.242Z,12.40
2023-01-11T05:41:12.718Z,12.20
2023-01-11T05:49:20.931Z,12.50
2023-01-11T05:57:26.338Z,12.20
2023-01-11T06:05:38.827Z,11.90
2023-01-11T06:13:47.431Z,12.10
2023-01-11T06:21:56.332Z,12.50
2023-01-11T06:30:01.765Z,12.70
2023-01-11T06:38:11.216Z,12.40
2023-01-11T06:46:19.139Z,12.70
2023-01-11T06:54:28.806Z,12.70
2023-01-11T07:02:34.311Z,12.70
2023-01-11T07:10:44.106Z,12.90
2023-01-11T07:18:50.123Z,12.90
2023-01-11T07:27:01.397Z,13.00
2023-01-11T07:35:08.963Z,12.70
2023-01-11T07:43:20.173Z,12.60
2023-01-11T07:51:25.728Z,12.50
2023-01-11T07:59:33.975Z,13.00
2023-01-11T08:07:39.587Z,12.70
2023-01-11T08:15:48.282Z,12.90
2023-01-11T08:23:56.141Z,13.10
2023-01-11T08:32:04.676Z,13.60
2023-01-11T08:40:11.884Z,13.60
2023-01-11T08:48:19.975Z,13.20
2023-01-11T08:56:26.139Z,13.60
2023-01-11T09:04:34.324Z,14.10
2023-01-11T09:12:41.241Z,14.40
2023-01-11T09:20:49.287Z,14.30
2023-01-11T09:28:54.773Z,14.00
2023-01-11T09:37:04.814Z,14.30
2023-01-11T09:45:18.243Z,14.20
2023-01-11T09:53:32.329Z,16.50
2023-01-11T10:01:43.435Z,17.30
2023-01-11T10:19:04.626Z,22.30
2023-01-11T10:27:30.153Z,24.40
2023-01-11T10:36:02.983Z,21.70
2023-01-11T10:44:19.565Z,18.90
2023-01-11T10:52:35.309Z,18.50
2023-01-11T11:00:51.722Z,16.90
2023-01-11T11:09:03.368Z,16.30
2023-01-11T11:17:20.735Z,15.90
2023-01-11T11:25:33.209Z,15.80
2023-01-11T11:33:42.226Z,15.50
2023-01-11T11:41:52.432Z,16.00
2023-01-11T11:50:43.093Z,16.30
2023-01-11T11:58:50.015Z,16.80
2023-01-11T12:07:10.623Z,16.50
2023-01-11T12:15:29.052Z,16.00
2023-01-11T12:23:38.316Z,15.70
2023-01-11T12:32:13.376Z,15.70
2023-01-11T12:40:28.480Z,15.90
2023-01-11T12:49:00.318Z,15.70
2023-01-11T12:57:34.533Z,15.60
2023-01-11T13:05:55.386Z,16.20
2023-01-11T13:14:17.319Z,16.10
2023-01-11T13:22:28.009Z,16.30
2023-01-11T13:30:36.783Z,16.40
2023-01-11T13:38:46.094Z,16.20
2023-01-11T13:47:06.069Z,16.50
2023-01-11T13:55:32.739Z,16.10
2023-01-11T14:03:51.106Z,16.00
2023-01-11T14:12:04.584Z,15.80
2023-01-11T14:20:25.478Z,15.70
2023-01-11T14:28:55.170Z,15.20
2023-01-11T14:37:28.422Z,15.00
2023-01-11T14:45:52.466Z,14.90
2023-01-11T14:54:07.410Z,15.10
2023-01-11T15:02:28.939Z,15.10
2023-01-11T15:11:12.937Z,14.70
2023-01-11T15:19:27.712Z,14.60
2023-01-11T15:27:39.427Z,14.60
2023-01-11T15:35:45.553Z,14.40
2023-01-11T15:44:19.118Z,14.30
2023-01-11T15:52:57.110Z,14.20
2023-01-11T16:01:28.569Z,14.20
2023-01-11T16:10:07.031Z,14.10
2023-01-11T16:18:27.216Z,14.20
2023-01-11T16:26:32.607Z,14.20
2023-01-11T16:34:47.216Z,14.00
2023-01-11T16:42:58.601Z,14.10
2023-01-11T16:51:10.867Z,14.10
2023-01-11T16:59:26.822Z,13.90
2023-01-11T17:07:35.191Z,13.80
2023-01-11T17:15:53.254Z,13.70
2023-01-11T17:24:04.598Z,13.40
2023-01-11T17:32:16.093Z,12.60
2023-01-11T17:40:31.219Z,13.10
2023-01-11T17:48:37.559Z,13.00
2023-01-11T17:56:46.064Z,13.40
2023-01-11T18:05:01.323Z,13.60
2023-01-11T18:13:26.093Z,13.50
2023-01-11T18:21:42.380Z,13.40
2023-01-11T18:29:56.958Z,13.40
2023-01-11T18:38:02.668Z,13.40
2023-01-11T18:46:13.608Z,13.30
2023-01-11T18:54:20.373Z,13.20
2023-01-11T19:02:31.609Z,13.10
2023-01-11T19:10:37.480Z,13.10
2023-01-11T19:18:46.574Z,13.10
2023-01-11T19:26:52.703Z,13.00
2023-01-11T19:35:18.863Z,13.00
2023-01-11T19:43:24.279Z,13.00
2023-01-11T19:51:32.396Z,12.80
2023-01-11T19:59:37.963Z,12.60
2023-01-11T20:07:48.951Z,12.50
2023-01-11T20:15:55.471Z,12.50
2023-01-11T20:24:04.049Z,12.60
2023-01-11T20:32:31.125Z,12.70
2023-01-11T20:40:38.344Z,12.50
2023-01-11T20:48:44.171Z,12.40
2023-01-11T20:56:52.166Z,12.50
2023-01-11T21:04:57.528Z,12.50
2023-01-11T21:21:15.121Z,12.50
2023-01-11T21:29:22.998Z,12.20
2023-01-11T21:37:28.272Z,12.10
2023-01-11T21:45:36.284Z,12.10
2023-01-11T21:53:43.351Z,11.80
2023-01-11T22:01:51.687Z,12.00
2023-01-11T22:10:04.581Z,11.90
2023-01-11T22:18:13.067Z,11.60
2023-01-11T22:26:20.202Z,11.60
2023-01-11T22:34:28.233Z,11.60
2023-01-11T22:42:33.565Z,11.50
2023-01-11T22:50:50.991Z,11.60
2023-01-11T22:58:56.976Z,11.70
2023-01-11T23:07:04.908Z,11.80
2023-01-11T23:15:11.489Z,11.70
2023-01-11T23:23:19.427Z,11.80
2023-01-11T23:31:26.442Z,11.90
2023-01-11T23:39:34.370Z,12.20
2023-01-11T23:47:39.639Z,12.00
2023-01-11T23:55:47.679Z,12.10
